• Join FlightAware (Why Join?)
  • Login
  • US Flag 
02:19AM EDT


 

Airport Tracker/Info


-or-


 

Live Flight TrackerFlight Track Log ✈ SWA267 ✈ 23-Apr-2013 ✈ KORF - KBWI

Flight Track Log - Related Links

Times and Time Zones

All times are in EDT time to prevent confusion due to time zone crossing. See the SWA267 flight status page for this flight to view local times or setup timezone preferences in your user account.

Time Position Orientation Groundspeed Altitude Reporting Facility
EDT Latitude Longitude Course Direction KTS MPH feet Rate Location/Type
12:30PM 36.9267 -76.1714 34° Northeast 177 204 1,600  Level Washington Center
12:32PM 36.9850 -76.1717 360° North 251 289 3,700 1,080 Climbing Washington Center
12:33PM 36.9867 -76.2628 271° West 276 318 4,000 600 Climbing Washington Center
12:34PM 36.9672 -76.3536 255° West 278 320 5,000 1,740 Climbing Washington Center
12:35PM 37.0042 -76.4581 294° West 279 321 8,100 2,460 Climbing Washington Center
12:36PM 37.0431 -76.5364 302° West 284 327 10,600 1,740 Climbing Washington Center
12:37PM 37.0903 -76.6333 301° West 293 337 11,600 1,500 Climbing Washington Center
12:38PM 37.1394 -76.7331 302° West 319 367 13,700 2,100 Climbing Washington Center
12:39PM 37.1928 -76.8381 303° West 345 397 15,800 1,140 Climbing Washington Center
12:40PM 37.2356 -76.9328 300° West 350 403 16,000 60 Climbing Washington Center
12:41PM 37.2925 -77.0458 302° West 355 409 16,000  Level Washington Center
12:42PM 37.3500 -77.1175 315° West 317 365 16,000  Level Washington Center
12:43PM 37.4586 -77.1222 358° North 315 362 16,000  Level Washington Center
12:44PM 37.5544 -77.1242 359° North 351 404 16,000  Level Washington Center
12:45PM 37.6650 -77.1264 359° North 376 433 16,000  Level Washington Center
12:46PM 37.7714 -77.1286 359° North 382 440 16,000  Level Washington Center
12:47PM 37.8678 -77.0886 18° North 370 426 16,000  Level Washington Center
12:48PM 37.9661 -77.0511 17° North 370 426 16,000  Level Washington Center
12:49PM 38.0667 -77.0239 12° North 365 420 16,000  Level Washington Center
12:50PM 38.1622 -77.0547 346° North 352 405 16,000 -300 Level Washington Center
12:51PM 38.2556 -77.0911 343° North 347 399 15,400 -600 Descending Washington Center
12:52PM 38.3617 -77.1222 347° North 347 399 14,800 -900 Descending Washington Center
12:53PM 38.4333 -77.0417 41° Northeast 304 350 13,700 -1,080 Descending Washington Center
12:54PM 38.4969 -76.9525 48° Northeast 315 362 12,700 -1,020 Descending Washington Center
12:55PM 38.5606 -76.8633 48° Northeast 320 368 11,700 -1,200 Descending Washington Center
12:56PM 38.6178 -76.7819 48° Northeast 314 361 10,300 -1,140 Descending Washington Center
12:57PM 38.6706 -76.7083 47° Northeast 302 348 9,500 -1,140 Descending Washington Center
12:58PM 38.7233 -76.6347 47° Northeast 284 327 8,100 -1,320 Descending Washington Center
12:58PM 38.7500 -76.5833 56° Northeast 282 325 7,400 -1,260 Descending Potomac TRACON
12:59PM 38.8167 -76.5167 38° Northeast 274 315 6,100 -1,200 Descending Potomac TRACON
01:00PM 38.8667 -76.5333 345° North 242 278 5,200 -1,080 Descending Potomac TRACON
01:01PM 38.9333 -76.5667 339° North 229 264 4,100 -600 Descending Potomac TRACON
01:02PM 39.0000 -76.5833 349° North 232 267 4,000 -540 Descending Potomac TRACON
01:03PM 39.0667 -76.6000 349° North 209 241 3,100 -900 Descending Potomac TRACON
01:04PM 39.1000 -76.6167 339° North 139 160 2,200 -1,080 Descending Potomac TRACON
01:05PM 39.1333 -76.6333 339° North 142 163 1,100 -1,260 Descending Potomac TRACON
01:07PM 39.1667 -76.6667 339° North  Level FlightAware Approximate
01:14PM 39.1754 -76.6683 339° North  Level Estimated
01:15PM 39.1754 -76.6683 339° North  Level Estimated
01:16PM 39.1754 -76.6683 339° North  Level Estimated
01:17PM 39.1754 -76.6683 339° North  Level Estimated